Time;durP1;ratioP1;P1;durP2;ratioP2;P2;SDS_P1;SDS_P2;PMS_P1;PMS_P2;Temp;Humidity;BMP_temperature;BMP_pressure;BME280_temperature;BME280_humidity;BME280_pressure;Samples;Min_cycle;Max_cycle;Signal;HPM_P1;HPM_P2
2023/02/02 05:30:44;;;;;;;;;7.00;5.00;;;;;;;;6312767;22;46346;-61
2023/02/02 05:33:10;;;;;;;;;6.67;4.67;;;;;;;;6402761;22;45241;-62
2023/02/02 05:35:35;;;;;;;;;5.00;4.00;;;;;;;;6404198;22;45309;-61
2023/02/02 05:38:00;;;;;;;;;11.33;4.00;;;;;;;;6404496;22;45293;-62
2023/02/02 05:40:26;;;;;;;;;10.00;4.33;;;;;;;;6403895;22;46384;-62
2023/02/02 05:42:51;;;;;;;;;6.00;5.00;;;;;;;;6403924;22;45196;-62
2023/02/02 05:45:16;;;;;;;;;11.33;5.67;;;;;;;;6404780;22;45235;-61
2023/02/02 05:47:41;;;;;;;;;5.33;5.33;;;;;;;;6404481;22;45533;-62
2023/02/02 05:50:08;;;;;;;;;12.00;4.67;;;;;;;;6403485;22;46084;-62
2023/02/02 05:52:34;;;;;;;;;12.33;4.00;;;;;;;;6402996;22;45232;-62
2023/02/02 05:54:59;;;;;;;;;4.67;4.00;;;;;;;;6403144;22;45290;-61
2023/02/02 05:57:26;;;;;;;;;3.33;3.33;;;;;;;;6403907;22;45166;-62
2023/02/02 05:59:51;;;;;;;;;9.67;5.00;;;;;;;;6403394;22;45991;-62
2023/02/02 06:02:17;;;;;;;;;5.33;4.33;;;;;;;;6402008;22;45551;-62
2023/02/02 06:04:42;;;;;;;;;9.00;6.00;;;;;;;;6403891;22;45284;-62
2023/02/02 06:07:07;;;;;;;;;8.00;5.00;;;;;;;;6403805;22;45221;-62
2023/02/02 06:09:32;;;;;;;;;7.00;5.00;;;;;;;;6403739;22;45372;-62
2023/02/02 06:11:57;;;;;;;;;6.00;6.00;;;;;;;;6403558;22;45209;-62
2023/02/02 06:14:23;;;;;;;;;8.00;3.67;;;;;;;;6403783;22;45366;-62
2023/02/02 06:16:48;;;;;;;;;6.67;5.67;;;;;;;;6403407;22;45470;-62
2023/02/02 06:19:13;;;;;;;;;10.00;7.33;;;;;;;;6403313;22;45290;-63
2023/02/02 06:21:38;;;;;;;;;4.67;4.67;;;;;;;;6404282;22;45254;-63
2023/02/02 06:24:04;;;;;;;;;6.00;4.33;;;;;;;;6403916;22;45199;-63
2023/02/02 06:26:29;;;;;;;;;5.33;4.00;;;;;;;;6403805;22;45479;-63
2023/02/02 06:28:54;;;;;;;;;5.67;5.33;;;;;;;;6403237;22;45912;-63
2023/02/02 06:31:19;;;;;;;;;7.00;5.00;;;;;;;;6402250;22;45506;-62
2023/02/02 06:33:51;;;;;;;;;7.67;4.00;;;;;;;;6399649;22;45320;-61
2023/02/02 06:36:17;;;;;;;;;9.00;6.67;;;;;;;;6401101;22;45491;-62
2023/02/02 06:38:42;;;;;;;;;5.33;4.00;;;;;;;;6398842;22;46285;-62
2023/02/02 06:41:07;;;;;;;;;6.33;5.00;;;;;;;;6397621;22;45295;-64
2023/02/02 06:43:32;;;;;;;;;4.67;4.67;;;;;;;;6396400;22;45555;-62
2023/02/02 06:45:57;;;;;;;;;8.67;6.33;;;;;;;;6379142;22;45383;-62
2023/02/02 06:48:23;;;;;;;;;6.00;4.33;;;;;;;;6388616;22;46943;-64
2023/02/02 06:50:48;;;;;;;;;0.67;0.00;;;;;;;;6392380;22;45593;-61
2023/02/02 06:53:14;;;;;;;;;5.67;3.00;;;;;;;;6392255;22;45779;-62
2023/02/02 06:55:39;;;;;;;;;4.00;4.00;;;;;;;;6390415;22;45364;-62
2023/02/02 06:58:05;;;;;;;;;3.00;3.00;;;;;;;;6392553;22;45897;-62
2023/02/02 07:00:30;;;;;;;;;10.33;4.33;;;;;;;;6389130;22;45944;-62
2023/02/02 07:02:55;;;;;;;;;3.33;3.00;;;;;;;;6390886;22;45302;-62
2023/02/02 07:05:22;;;;;;;;;1.33;1.33;;;;;;;;6389285;22;45771;-63
2023/02/02 07:07:48;;;;;;;;;6.67;5.67;;;;;;;;6392621;22;47048;-62
2023/02/02 07:10:14;;;;;;;;;6.00;6.00;;;;;;;;6398410;22;45305;-61
2023/02/02 07:12:39;;;;;;;;;7.00;3.67;;;;;;;;6399567;22;45628;-65
2023/02/02 07:15:04;;;;;;;;;8.00;5.00;;;;;;;;6398917;22;45324;-64
2023/02/02 07:17:30;;;;;;;;;4.33;4.33;;;;;;;;6399270;22;46092;-64
2023/02/02 07:19:55;;;;;;;;;6.33;5.00;;;;;;;;6399337;22;45415;-64
2023/02/02 07:22:20;;;;;;;;;8.00;3.33;;;;;;;;6399623;22;45415;-63
2023/02/02 07:24:45;;;;;;;;;6.00;3.00;;;;;;;;6367466;22;45481;-64
2023/02/02 07:27:10;;;;;;;;;3.33;2.67;;;;;;;;6397877;22;46167;-63
2023/02/02 07:29:35;;;;;;;;;5.00;3.67;;;;;;;;6400274;22;45341;-63
2023/02/02 07:32:01;;;;;;;;;4.00;4.00;;;;;;;;6398693;22;45560;-63
2023/02/02 07:34:26;;;;;;;;;6.00;4.67;;;;;;;;6401435;22;45338;-63
2023/02/02 07:36:51;;;;;;;;;7.00;6.67;;;;;;;;6399637;22;46235;-64
2023/02/02 07:39:16;;;;;;;;;5.00;5.00;;;;;;;;6401909;22;45365;-64
2023/02/02 07:41:44;;;;;;;;;8.00;7.00;;;;;;;;6401380;22;45275;-64
2023/02/02 07:44:14;;;;;;;;;6.33;5.00;;;;;;;;6400203;22;45773;-64
2023/02/02 07:46:39;;;;;;;;;5.33;5.00;;;;;;;;6397519;22;45363;-64
2023/02/02 07:49:04;;;;;;;;;9.67;5.00;;;;;;;;6398668;22;45297;-64
2023/02/02 07:51:30;;;;;;;;;4.33;4.33;;;;;;;;6370205;22;45318;-64
2023/02/02 07:53:57;;;;;;;;;7.67;6.33;;;;;;;;6397411;22;45387;-64
2023/02/02 07:56:24;;;;;;;;;10.33;4.67;;;;;;;;6398113;22;45889;-64
2023/02/02 07:58:52;;;;;;;;;4.33;3.67;;;;;;;;6397902;22;45375;-64
2023/02/02 08:01:19;;;;;;;;;5.67;5.67;;;;;;;;6397970;22;45222;-64
2023/02/02 08:03:44;;;;;;;;;6.67;4.67;;;;;;;;6398085;22;45339;-64
2023/02/02 08:06:23;;;;;;;;;5.67;4.00;;;;;;;;6397986;22;45979;-64
2023/02/02 08:08:48;;;;;;;;;12.00;6.00;;;;;;;;6400280;22;45381;-63
2023/02/02 08:11:14;;;;;;;;;5.33;4.00;;;;;;;;6399958;22;45289;-63
2023/02/02 08:13:40;;;;;;;;;5.33;4.67;;;;;;;;6401526;22;45368;-63
2023/02/02 08:16:05;;;;;;;;;6.00;5.33;;;;;;;;6399566;22;45304;-63
2023/02/02 08:18:32;;;;;;;;;3.00;2.33;;;;;;;;6400749;22;45340;-63
2023/02/02 08:20:58;;;;;;;;;1.67;1.67;;;;;;;;6400944;22;45320;-63
2023/02/02 08:23:23;;;;;;;;;3.00;3.00;;;;;;;;6403145;22;45268;-63
2023/02/02 08:25:49;;;;;;;;;5.67;3.67;;;;;;;;6400474;22;45782;-63
2023/02/02 08:28:14;;;;;;;;;3.00;3.00;;;;;;;;6397534;22;45348;-63
2023/02/02 08:30:39;;;;;;;;;2.67;2.00;;;;;;;;6394935;22;45422;-63
2023/02/02 08:33:05;;;;;;;;;2.00;2.00;;;;;;;;6393788;22;45356;-63
2023/02/02 08:35:30;;;;;;;;;7.00;3.67;;;;;;;;6391188;22;45167;-63
2023/02/02 08:37:55;;;;;;;;;4.00;3.00;;;;;;;;6392349;22;45485;-63
2023/02/02 08:40:20;;;;;;;;;1.00;1.00;;;;;;;;6398282;22;45345;-64
2023/02/02 08:42:49;;;;;;;;;6.00;3.00;;;;;;;;6398770;22;45283;-63
2023/02/02 08:45:15;;;;;;;;;8.33;4.67;;;;;;;;6396694;22;46214;-63
2023/02/02 08:47:40;;;;;;;;;3.33;2.33;;;;;;;;6397844;22;45162;-64
2023/02/02 08:50:06;;;;;;;;;8.00;3.67;;;;;;;;6396435;22;45362;-63
2023/02/02 08:52:31;;;;;;;;;5.67;2.00;;;;;;;;6397360;22;45340;-63
2023/02/02 08:54:56;;;;;;;;;3.00;3.00;;;;;;;;6396969;22;45368;-63
2023/02/02 08:57:21;;;;;;;;;3.67;3.00;;;;;;;;6396755;22;45849;-64
2023/02/02 08:59:46;;;;;;;;;5.33;3.00;;;;;;;;6368930;22;45576;-63
2023/02/02 09:02:12;;;;;;;;;3.33;3.33;;;;;;;;6392264;22;45553;-64
2023/02/02 09:04:39;;;;;;;;;4.67;3.00;;;;;;;;6389296;22;46867;-63
2023/02/02 09:07:04;;;;;;;;;3.67;3.67;;;;;;;;6397292;22;45356;-63
2023/02/02 09:09:29;;;;;;;;;4.67;2.33;;;;;;;;6398178;22;45318;-63
2023/02/02 09:11:54;;;;;;;;;4.33;3.00;;;;;;;;6397094;22;45309;-63
2023/02/02 09:14:19;;;;;;;;;2.67;2.67;;;;;;;;6401014;22;46107;-63
2023/02/02 09:16:45;;;;;;;;;8.00;3.00;;;;;;;;6400405;22;45250;-64
2023/02/02 09:19:11;;;;;;;;;7.33;5.00;;;;;;;;6400643;22;45131;-64
2023/02/02 09:21:36;;;;;;;;;2.67;2.00;;;;;;;;6401776;22;45573;-64
2023/02/02 09:24:05;;;;;;;;;3.67;2.67;;;;;;;;6401239;22;46094;-64
2023/02/02 09:26:30;;;;;;;;;4.00;1.33;;;;;;;;6402740;22;45412;-64
2023/02/02 09:28:57;;;;;;;;;4.67;3.00;;;;;;;;6402626;22;45611;-64
2023/02/02 09:31:23;;;;;;;;;4.67;2.00;;;;;;;;6402437;22;45385;-64
2023/02/02 09:33:48;;;;;;;;;8.33;4.00;;;;;;;;6401883;22;45234;-64
2023/02/02 09:36:15;;;;;;;;;6.33;3.33;;;;;;;;6401268;22;45280;-63
2023/02/02 09:38:40;;;;;;;;;1.67;1.00;;;;;;;;6402173;22;45287;-63
2023/02/02 09:41:14;;;;;;;;;3.67;3.33;;;;;;;;6400481;22;45482;-64
2023/02/02 09:43:45;;;;;;;;;5.33;2.67;;;;;;;;6401414;22;45302;-64
2023/02/02 09:46:19;;;;;;;;;2.00;0.00;;;;;;;;6400895;22;45719;-64
2023/02/02 09:48:56;;;;;;;;;4.00;4.00;;;;;;;;6402228;22;45725;-64
2023/02/02 09:51:23;;;;;;;;;7.00;5.00;;;;;;;;6371138;22;45456;-64
2023/02/02 09:53:54;;;;;;;;;4.33;3.00;;;;;;;;6391946;22;46127;-64
2023/02/02 09:56:28;;;;;;;;;5.00;3.33;;;;;;;;6389724;22;45373;-64
2023/02/02 09:58:54;;;;;;;;;7.00;3.67;;;;;;;;6364141;22;45404;-64
2023/02/02 10:01:23;;;;;;;;;4.00;4.00;;;;;;;;6393168;22;45353;-64
2023/02/02 10:04:07;;;;;;;;;3.33;3.00;;;;;;;;6394922;22;45347;-64
2023/02/02 10:06:37;;;;;;;;;5.00;2.00;;;;;;;;6395279;22;45535;-64
2023/02/02 10:09:23;;;;;;;;;4.33;1.67;;;;;;;;6396096;22;45384;-63
2023/02/02 10:12:06;;;;;;;;;5.00;3.00;;;;;;;;6373079;22;45704;-64
2023/02/02 10:14:35;;;;;;;;;6.00;3.00;;;;;;;;6397004;22;46225;-64
2023/02/02 10:17:20;;;;;;;;;5.33;3.33;;;;;;;;6400924;22;45683;-63
2023/02/02 10:19:46;;;;;;;;;4.00;3.00;;;;;;;;6400538;22;45290;-63
2023/02/02 10:22:16;;;;;;;;;7.33;3.00;;;;;;;;6400699;22;45498;-63
2023/02/02 10:24:42;;;;;;;;;5.33;4.00;;;;;;;;6399729;22;45846;-64
2023/02/02 10:27:14;;;;;;;;;3.67;3.67;;;;;;;;6400054;22;45256;-64
2023/02/02 10:29:58;;;;;;;;;4.67;3.00;;;;;;;;6400492;22;45692;-64
2023/02/02 10:32:23;;;;;;;;;5.67;4.00;;;;;;;;6399000;22;45770;-64
2023/02/02 10:35:07;;;;;;;;;6.00;4.00;;;;;;;;6400378;22;45982;-64
2023/02/02 10:37:44;;;;;;;;;7.00;5.00;;;;;;;;6401631;22;45684;-63
2023/02/02 10:40:18;;;;;;;;;3.00;3.00;;;;;;;;6399980;22;45777;-64
2023/02/02 10:45:47;;;;;;;;;4.00;3.00;;;;;;;;6401147;22;45442;-63
2023/02/02 10:48:17;;;;;;;;;7.00;3.00;;;;;;;;6400279;22;45288;-64
2023/02/02 10:50:46;;;;;;;;;3.67;3.67;;;;;;;;6399917;22;45698;-64
2023/02/02 10:53:12;;;;;;;;;5.00;5.00;;;;;;;;6399744;22;45323;-64
2023/02/02 10:55:44;;;;;;;;;9.00;4.00;;;;;;;;6400304;22;45344;-64
2023/02/02 10:58:12;;;;;;;;;4.00;4.00;;;;;;;;6399467;22;45332;-64
2023/02/02 11:00:51;;;;;;;;;5.00;5.00;;;;;;;;6400331;22;45337;-63
2023/02/02 11:03:18;;;;;;;;;6.00;5.00;;;;;;;;6400732;22;45388;-64
2023/02/02 11:08:44;;;;;;;;;7.67;5.33;;;;;;;;6400711;22;45388;-65
2023/02/02 11:11:12;;;;;;;;;7.00;5.00;;;;;;;;6400608;22;45354;-64
2023/02/02 11:13:42;;;;;;;;;6.33;3.00;;;;;;;;6401724;22;45404;-65
2023/02/02 11:16:13;;;;;;;;;4.33;3.67;;;;;;;;6400452;22;46599;-64
2023/02/02 11:18:39;;;;;;;;;6.00;3.00;;;;;;;;6401441;22;45365;-64
2023/02/02 11:21:23;;;;;;;;;4.00;3.00;;;;;;;;6401042;22;45402;-64
2023/02/02 11:23:51;;;;;;;;;5.00;3.67;;;;;;;;6401658;22;45501;-64
2023/02/02 11:26:17;;;;;;;;;4.67;3.67;;;;;;;;6401450;22;46448;-63
2023/02/02 11:28:42;;;;;;;;;4.67;3.67;;;;;;;;6400207;22;45281;-64
2023/02/02 11:31:08;;;;;;;;;3.00;2.00;;;;;;;;6397349;22;45418;-63
2023/02/02 11:33:34;;;;;;;;;2.67;2.67;;;;;;;;6399315;22;45578;-64
2023/02/02 11:36:00;;;;;;;;;3.67;2.00;;;;;;;;6399598;22;45231;-64
2023/02/02 11:38:26;;;;;;;;;6.00;2.00;;;;;;;;6398887;22;45387;-63
2023/02/02 11:41:02;;;;;;;;;1.33;1.33;;;;;;;;6400679;22;45303;-64
2023/02/02 11:43:30;;;;;;;;;3.00;2.00;;;;;;;;6400693;22;45365;-64
2023/02/02 11:45:59;;;;;;;;;3.00;3.00;;;;;;;;6398709;22;46217;-64
2023/02/02 11:48:30;;;;;;;;;3.00;3.00;;;;;;;;6400969;22;45372;-64
2023/02/02 11:50:57;;;;;;;;;6.00;6.00;;;;;;;;6399136;22;45503;-64
2023/02/02 11:53:22;;;;;;;;;4.00;4.00;;;;;;;;6397692;22;45360;-64
2023/02/02 11:55:47;;;;;;;;;7.33;4.33;;;;;;;;6395383;22;45478;-65
2023/02/02 11:58:18;;;;;;;;;5.00;3.67;;;;;;;;6398044;22;45550;-64
2023/02/02 12:00:48;;;;;;;;;6.00;3.00;;;;;;;;6396558;22;45276;-63
2023/02/02 12:03:24;;;;;;;;;4.00;4.00;;;;;;;;6364689;22;45309;-65
2023/02/02 12:05:49;;;;;;;;;4.67;3.00;;;;;;;;6395491;22;47053;-67
2023/02/02 12:08:15;;;;;;;;;4.00;4.00;;;;;;;;6365704;22;45328;-72
2023/02/02 12:10:53;;;;;;;;;3.00;1.00;;;;;;;;6391066;22;45289;-61
2023/02/02 12:13:25;;;;;;;;;4.00;4.00;;;;;;;;6361077;22;45670;-62
2023/02/02 12:15:57;;;;;;;;;9.00;6.67;;;;;;;;6387141;22;46042;-61
2023/02/02 12:18:22;;;;;;;;;2.33;2.33;;;;;;;;6390793;22;45308;-63
2023/02/02 12:20:53;;;;;;;;;2.00;2.00;;;;;;;;6393411;22;45706;-62
2023/02/02 12:23:18;;;;;;;;;4.00;1.67;;;;;;;;6391176;22;45387;-63
2023/02/02 12:25:52;;;;;;;;;4.67;2.67;;;;;;;;6391223;22;45992;-62
2023/02/02 12:28:25;;;;;;;;;3.00;3.00;;;;;;;;6390551;22;45278;-60
2023/02/02 12:31:06;;;;;;;;;3.00;3.00;;;;;;;;6389209;22;45451;-60
2023/02/02 12:33:38;;;;;;;;;3.00;2.33;;;;;;;;6359776;22;45399;-61
2023/02/02 12:36:26;;;;;;;;;2.67;2.67;;;;;;;;6387276;22;45656;-64
2023/02/02 12:38:54;;;;;;;;;3.67;2.33;;;;;;;;6324737;22;45669;-60
2023/02/02 12:41:32;;;;;;;;;2.33;2.00;;;;;;;;6385555;22;45443;-65
2023/02/02 12:44:05;;;;;;;;;3.00;2.33;;;;;;;;6394925;22;45308;-62
2023/02/02 12:46:49;;;;;;;;;7.67;2.33;;;;;;;;6363351;22;46164;-65
2023/02/02 12:49:32;;;;;;;;;3.67;3.67;;;;;;;;6389337;22;45627;-63
2023/02/02 12:52:15;;;;;;;;;2.00;2.00;;;;;;;;6390950;22;45387;-65
2023/02/02 12:54:40;;;;;;;;;4.00;3.00;;;;;;;;6389580;22;45722;-60
2023/02/02 12:57:26;;;;;;;;;2.33;1.67;;;;;;;;6389451;22;45541;-63
2023/02/02 12:59:54;;;;;;;;;3.00;2.00;;;;;;;;6367411;22;45512;-61
2023/02/02 13:02:43;;;;;;;;;6.00;3.00;;;;;;;;6394218;22;45589;-65
2023/02/02 13:05:09;;;;;;;;;3.00;3.00;;;;;;;;6390000;22;45461;-65
2023/02/02 13:07:34;;;;;;;;;5.67;3.00;;;;;;;;6391252;22;46362;-59
2023/02/02 13:09:59;;;;;;;;;5.00;5.00;;;;;;;;6363410;22;45423;-60
2023/02/02 13:12:25;;;;;;;;;6.00;4.67;;;;;;;;6394831;22;45592;-60
2023/02/02 13:14:56;;;;;;;;;7.67;5.00;;;;;;;;6394456;22;45348;-60
2023/02/02 13:17:28;;;;;;;;;4.00;3.33;;;;;;;;6394374;22;45479;-60
2023/02/02 13:19:59;;;;;;;;;3.00;3.00;;;;;;;;6396807;22;45375;-60
2023/02/02 13:22:27;;;;;;;;;5.00;3.33;;;;;;;;6397586;22;45680;-60
2023/02/02 13:24:54;;;;;;;;;4.00;3.00;;;;;;;;6393994;22;45647;-61
2023/02/02 13:27:20;;;;;;;;;4.67;3.00;;;;;;;;6399255;22;46219;-61
2023/02/02 13:29:45;;;;;;;;;8.00;3.67;;;;;;;;6400839;22;45422;-61
2023/02/02 13:34:50;;;;;;;;;6.00;5.00;;;;;;;;6339577;22;46694;-59
2023/02/02 13:37:36;;;;;;;;;5.00;5.00;;;;;;;;6320717;22;47327;-61
2023/02/02 13:40:19;;;;;;;;;4.33;4.33;;;;;;;;6328378;22;45642;-60
2023/02/02 13:45:16;;;;;;;;;7.00;4.00;;;;;;;;6349774;22;45448;-60
2023/02/02 13:50:13;;;;;;;;;5.67;4.00;;;;;;;;6338672;22;45882;-60
2023/02/02 13:55:16;;;;;;;;;3.00;1.67;;;;;;;;6304852;22;47080;-60
2023/02/02 13:57:44;;;;;;;;;5.00;5.00;;;;;;;;6323679;22;45411;-59
2023/02/02 14:00:22;;;;;;;;;5.00;4.00;;;;;;;;6347666;22;45808;-60
2023/02/02 14:05:21;;;;;;;;;5.00;2.67;;;;;;;;6334268;22;58640;-60
2023/02/02 14:10:26;;;;;;;;;2.33;2.33;;;;;;;;6329766;22;63583;-60
2023/02/02 14:12:54;;;;;;;;;6.00;3.00;;;;;;;;6312061;22;45394;-60
2023/02/02 14:15:34;;;;;;;;;3.67;2.33;;;;;;;;6345179;22;45376;-60
2023/02/02 14:18:00;;;;;;;;;4.33;3.00;;;;;;;;6339408;22;45996;-59
2023/02/02 14:20:43;;;;;;;;;2.33;2.33;;;;;;;;6327654;22;45503;-59
2023/02/02 14:23:27;;;;;;;;;5.00;4.00;;;;;;;;6339968;22;45382;-59
2023/02/02 14:26:08;;;;;;;;;3.00;3.00;;;;;;;;6342921;22;45510;-59
2023/02/02 14:28:44;;;;;;;;;3.00;2.00;;;;;;;;6318866;22;45353;-60
2023/02/02 14:31:25;;;;;;;;;5.00;4.00;;;;;;;;6310866;22;45333;-60
2023/02/02 14:33:50;;;;;;;;;3.33;3.00;;;;;;;;6291095;22;45439;-59
2023/02/02 14:36:15;;;;;;;;;5.00;2.00;;;;;;;;6340887;22;45400;-60
2023/02/02 14:44:11;;;;;;;;;2.67;2.67;;;;;;;;6313471;22;45341;-60
2023/02/02 14:46:39;;;;;;;;;6.00;3.00;;;;;;;;6283001;22;45625;-60
2023/02/02 14:49:13;;;;;;;;;4.67;4.67;;;;;;;;6267842;22;46127;-60
2023/02/02 14:54:18;;;;;;;;;7.00;5.00;;;;;;;;6326848;22;45314;-60
2023/02/02 14:56:51;;;;;;;;;5.00;4.00;;;;;;;;6330081;22;45380;-61
2023/02/02 14:59:25;;;;;;;;;5.67;5.33;;;;;;;;6328124;22;45996;-60
2023/02/02 15:02:14;;;;;;;;;3.00;3.00;;;;;;;;6329229;22;45391;-60
2023/02/02 15:04:39;;;;;;;;;3.00;3.00;;;;;;;;6316666;22;45583;-60
2023/02/02 15:07:23;;;;;;;;;5.00;4.00;;;;;;;;6329917;22;45381;-60
2023/02/02 15:09:49;;;;;;;;;3.67;3.00;;;;;;;;6331008;22;45688;-60
2023/02/02 15:12:15;;;;;;;;;2.33;2.00;;;;;;;;6331468;22;45369;-59
2023/02/02 15:14:44;;;;;;;;;3.00;2.67;;;;;;;;6331850;22;45400;-59
2023/02/02 15:17:19;;;;;;;;;3.00;3.00;;;;;;;;6332773;22;45231;-59
2023/02/02 15:19:48;;;;;;;;;3.00;2.00;;;;;;;;6330880;22;46113;-59
2023/02/02 15:22:28;;;;;;;;;2.00;2.00;;;;;;;;6329379;22;45663;-60
2023/02/02 15:24:56;;;;;;;;;1.00;1.00;;;;;;;;6330481;22;45373;-60
2023/02/02 15:27:23;;;;;;;;;3.00;3.00;;;;;;;;6330067;22;45368;-60
2023/02/02 15:29:52;;;;;;;;;1.67;1.67;;;;;;;;6330811;22;46305;-60
2023/02/02 15:32:19;;;;;;;;;4.00;1.00;;;;;;;;6328996;22;45670;-60
2023/02/02 15:34:49;;;;;;;;;3.00;3.00;;;;;;;;6330875;22;45495;-60
2023/02/02 15:37:20;;;;;;;;;2.67;2.00;;;;;;;;6349070;22;45430;-60
2023/02/02 15:39:47;;;;;;;;;3.00;3.00;;;;;;;;6333149;22;47248;-60
2023/02/02 15:44:59;;;;;;;;;2.00;2.00;;;;;;;;6362395;22;45639;-60
2023/02/02 15:47:30;;;;;;;;;3.00;2.00;;;;;;;;6360168;22;45621;-60
2023/02/02 15:49:56;;;;;;;;;4.00;3.00;;;;;;;;6361527;22;45423;-60
2023/02/02 15:52:24;;;;;;;;;3.00;2.00;;;;;;;;6362133;22;45390;-60
2023/02/02 15:54:51;;;;;;;;;5.00;3.00;;;;;;;;6363993;22;45336;-60
2023/02/02 15:57:22;;;;;;;;;2.33;2.33;;;;;;;;6362460;22;45534;-60
2023/02/02 15:59:48;;;;;;;;;3.67;2.00;;;;;;;;6341358;22;45362;-60
2023/02/02 16:02:25;;;;;;;;;3.00;2.00;;;;;;;;6349201;22;45627;-60
2023/02/02 16:04:50;;;;;;;;;3.33;2.33;;;;;;;;6354747;22;45629;-61
2023/02/02 16:07:18;;;;;;;;;2.00;2.00;;;;;;;;6353737;22;45771;-60
2023/02/02 16:09:43;;;;;;;;;2.33;2.33;;;;;;;;6350293;22;45530;-60
2023/02/02 16:12:17;;;;;;;;;3.00;2.00;;;;;;;;6349397;22;45676;-60
2023/02/02 16:14:43;;;;;;;;;0.00;0.00;;;;;;;;6353149;22;45663;-60
2023/02/02 16:17:19;;;;;;;;;3.00;3.00;;;;;;;;6352487;22;45549;-60
2023/02/02 16:19:44;;;;;;;;;2.00;2.00;;;;;;;;6351669;22;45743;-60
2023/02/02 16:22:14;;;;;;;;;2.00;2.00;;;;;;;;6353887;22;45454;-60
2023/02/02 16:24:40;;;;;;;;;2.33;2.00;;;;;;;;6355944;22;45732;-60
2023/02/02 16:27:07;;;;;;;;;2.67;2.00;;;;;;;;6354371;22;45570;-59
2023/02/02 16:29:33;;;;;;;;;5.67;3.33;;;;;;;;6355280;22;47018;-59
2023/02/02 16:31:59;;;;;;;;;4.00;2.33;;;;;;;;6354950;22;45712;-59
2023/02/02 16:34:40;;;;;;;;;3.33;3.33;;;;;;;;6350393;22;45886;-60
2023/02/02 16:37:06;;;;;;;;;3.33;3.33;;;;;;;;6352251;22;45530;-59
2023/02/02 16:39:31;;;;;;;;;2.67;2.67;;;;;;;;6352633;22;46130;-61
2023/02/02 16:42:07;;;;;;;;;5.00;3.33;;;;;;;;6354533;22;45298;-61
2023/02/02 16:44:42;;;;;;;;;5.67;3.00;;;;;;;;6355079;22;45502;-62
2023/02/02 16:47:29;;;;;;;;;3.00;3.00;;;;;;;;6353521;22;45802;-61
2023/02/02 16:50:14;;;;;;;;;7.33;4.33;;;;;;;;6354135;22;46302;-61
2023/02/02 16:52:51;;;;;;;;;5.00;5.00;;;;;;;;6353536;22;45362;-61
2023/02/02 16:55:17;;;;;;;;;8.00;6.00;;;;;;;;6352844;22;45448;-61
2023/02/02 16:57:44;;;;;;;;;9.33;6.00;;;;;;;;6351973;22;45632;-61
2023/02/02 17:00:22;;;;;;;;;7.00;5.33;;;;;;;;6350899;22;45819;-61
2023/02/02 17:02:50;;;;;;;;;5.67;5.67;;;;;;;;6355588;22;45960;-61
2023/02/02 17:05:29;;;;;;;;;4.00;4.00;;;;;;;;6346421;22;45749;-61
2023/02/02 17:07:59;;;;;;;;;6.00;5.33;;;;;;;;6356656;22;45528;-61
2023/02/02 17:10:34;;;;;;;;;4.00;4.00;;;;;;;;6351042;22;46194;-61
2023/02/02 17:13:00;;;;;;;;;5.67;4.33;;;;;;;;6353609;22;45365;-61
2023/02/02 17:15:29;;;;;;;;;5.67;4.00;;;;;;;;6355359;22;45409;-61
2023/02/02 17:17:54;;;;;;;;;5.67;4.67;;;;;;;;6355409;22;45726;-61
2023/02/02 17:20:19;;;;;;;;;5.00;4.00;;;;;;;;6352351;22;46335;-61
2023/02/02 17:22:49;;;;;;;;;4.00;4.00;;;;;;;;6325152;22;45368;-60
2023/02/02 17:25:33;;;;;;;;;6.00;5.00;;;;;;;;6352377;22;45660;-59
2023/02/02 17:27:59;;;;;;;;;6.33;3.00;;;;;;;;6350247;22;45503;-63
2023/02/02 17:30:25;;;;;;;;;7.33;6.33;;;;;;;;6356106;22;46079;-63
2023/02/02 17:32:50;;;;;;;;;5.33;5.33;;;;;;;;6354448;22;45310;-63
2023/02/02 17:35:17;;;;;;;;;4.67;4.67;;;;;;;;6359900;22;45458;-63
2023/02/02 17:37:42;;;;;;;;;6.33;5.00;;;;;;;;6352969;22;45730;-63
2023/02/02 17:40:11;;;;;;;;;8.00;6.00;;;;;;;;6347008;22;46055;-63
2023/02/02 17:42:37;;;;;;;;;9.00;7.67;;;;;;;;6320665;22;45402;-63
2023/02/02 17:45:02;;;;;;;;;5.67;5.67;;;;;;;;6348246;22;45333;-63
2023/02/02 17:47:27;;;;;;;;;7.00;6.00;;;;;;;;6347610;22;45889;-63
2023/02/02 17:49:53;;;;;;;;;10.00;8.33;;;;;;;;6343020;22;45453;-64
2023/02/02 17:52:18;;;;;;;;;7.67;5.00;;;;;;;;6344544;22;45772;-64
2023/02/02 17:54:43;;;;;;;;;7.00;6.00;;;;;;;;6344175;22;45415;-64
2023/02/02 17:57:09;;;;;;;;;7.00;5.67;;;;;;;;6354173;22;45393;-63
2023/02/02 17:59:34;;;;;;;;;8.00;7.00;;;;;;;;6349294;22;45881;-63
2023/02/02 18:02:00;;;;;;;;;5.00;5.00;;;;;;;;6348997;22;45623;-64
2023/02/02 18:04:25;;;;;;;;;5.67;4.00;;;;;;;;6351928;22;45452;-63
2023/02/02 18:06:50;;;;;;;;;7.67;5.00;;;;;;;;6343461;22;45646;-63
2023/02/02 18:09:16;;;;;;;;;5.33;5.33;;;;;;;;6354862;22;46185;-63
2023/02/02 18:11:44;;;;;;;;;7.00;5.00;;;;;;;;6363362;22;45607;-64
2023/02/02 18:14:09;;;;;;;;;8.33;6.00;;;;;;;;6362864;22;45393;-65
2023/02/02 18:16:34;;;;;;;;;8.00;5.00;;;;;;;;6362149;22;45394;-64
2023/02/02 18:19:01;;;;;;;;;6.67;5.00;;;;;;;;6361987;22;45538;-64
2023/02/02 18:21:27;;;;;;;;;6.33;6.00;;;;;;;;6363644;22;45687;-65
2023/02/02 18:23:52;;;;;;;;;8.00;6.00;;;;;;;;6366312;22;45491;-64
2023/02/02 18:26:20;;;;;;;;;7.67;5.00;;;;;;;;6363043;22;45465;-65
2023/02/02 18:28:49;;;;;;;;;4.33;4.33;;;;;;;;6364722;22;46107;-63
2023/02/02 18:31:16;;;;;;;;;7.33;7.00;;;;;;;;6363526;22;45423;-65
2023/02/02 18:33:41;;;;;;;;;6.33;6.00;;;;;;;;6363387;22;45436;-64
2023/02/02 18:36:08;;;;;;;;;6.00;6.00;;;;;;;;6364157;22;45766;-64
2023/02/02 18:38:33;;;;;;;;;7.33;6.00;;;;;;;;6360687;22;46239;-64
2023/02/02 18:40:58;;;;;;;;;10.00;8.33;;;;;;;;6361271;22;45323;-64
2023/02/02 18:43:23;;;;;;;;;8.67;6.67;;;;;;;;6363327;22;45411;-64
2023/02/02 18:45:57;;;;;;;;;9.67;8.00;;;;;;;;6361773;22;45579;-64
2023/02/02 18:48:23;;;;;;;;;8.00;8.00;;;;;;;;6359201;22;45691;-64
2023/02/02 18:50:48;;;;;;;;;10.00;8.33;;;;;;;;6361721;22;45833;-64
2023/02/02 18:53:16;;;;;;;;;10.67;6.00;;;;;;;;6359831;22;45406;-64
2023/02/02 18:55:41;;;;;;;;;10.33;8.00;;;;;;;;6362918;22;45337;-64
2023/02/02 18:58:09;;;;;;;;;8.33;6.33;;;;;;;;6360541;22;46153;-64
2023/02/02 19:00:34;;;;;;;;;8.67;8.00;;;;;;;;6361504;22;45430;-64
2023/02/02 19:02:59;;;;;;;;;9.67;9.67;;;;;;;;6361318;22;45487;-64
2023/02/02 19:08:08;;;;;;;;;7.33;7.00;;;;;;;;6363760;22;45341;-65
2023/02/02 19:10:34;;;;;;;;;7.67;7.67;;;;;;;;6363740;22;45407;-65
2023/02/02 19:13:09;;;;;;;;;8.00;8.00;;;;;;;;6361962;22;45610;-64
2023/02/02 19:15:36;;;;;;;;;12.00;9.00;;;;;;;;6363089;22;45732;-64
2023/02/02 19:18:06;;;;;;;;;11.33;10.00;;;;;;;;6360617;22;46939;-64
2023/02/02 19:20:31;;;;;;;;;8.00;7.67;;;;;;;;6363574;22;45397;-63
2023/02/02 19:22:59;;;;;;;;;14.33;9.00;;;;;;;;6365607;22;45612;-63
2023/02/02 19:25:24;;;;;;;;;9.33;9.33;;;;;;;;6366868;22;45656;-63
2023/02/02 19:27:49;;;;;;;;;9.33;7.67;;;;;;;;6365370;22;45533;-64
2023/02/02 19:30:18;;;;;;;;;12.67;7.67;;;;;;;;6366496;22;45530;-65
2023/02/02 19:32:43;;;;;;;;;14.33;9.33;;;;;;;;6366224;22;45341;-64
2023/02/02 19:35:37;;;;;;;;;12.33;11.33;;;;;;;;6366944;22;45338;-64
2023/02/02 19:38:03;;;;;;;;;11.33;10.33;;;;;;;;6356861;22;45629;-64
2023/02/02 19:40:28;;;;;;;;;11.00;9.33;;;;;;;;6354455;22;45642;-64
2023/02/02 19:43:00;;;;;;;;;10.33;10.00;;;;;;;;6355103;22;45521;-64
2023/02/02 19:45:25;;;;;;;;;12.33;10.00;;;;;;;;6357114;22;45755;-64
2023/02/02 19:47:51;;;;;;;;;11.67;9.00;;;;;;;;6362355;22;45622;-64
2023/02/02 19:50:24;;;;;;;;;10.33;7.33;;;;;;;;6363301;22;45648;-63
2023/02/02 19:52:49;;;;;;;;;5.00;5.00;;;;;;;;6361763;22;45364;-64
2023/02/02 19:55:28;;;;;;;;;7.00;5.33;;;;;;;;6364794;22;45807;-64
2023/02/02 19:57:59;;;;;;;;;9.00;7.33;;;;;;;;6360855;22;46869;-64
2023/02/02 20:00:26;;;;;;;;;6.00;6.00;;;;;;;;6358829;22;45902;-64
2023/02/02 20:02:54;;;;;;;;;10.67;9.67;;;;;;;;6357597;22;45589;-64
2023/02/02 20:05:20;;;;;;;;;7.00;6.00;;;;;;;;6362074;22;45723;-64
2023/02/02 20:07:46;;;;;;;;;7.67;7.67;;;;;;;;6358842;22;45989;-64
2023/02/02 20:10:18;;;;;;;;;10.00;7.00;;;;;;;;6359268;22;45738;-64
2023/02/02 20:12:43;;;;;;;;;7.00;7.00;;;;;;;;6358112;22;45733;-63
2023/02/02 20:15:18;;;;;;;;;6.33;6.33;;;;;;;;6361387;22;45492;-64
2023/02/02 20:17:44;;;;;;;;;6.33;6.33;;;;;;;;6359681;22;45733;-64
2023/02/02 20:20:29;;;;;;;;;8.00;7.00;;;;;;;;6359825;22;45690;-65
2023/02/02 20:22:55;;;;;;;;;6.67;6.33;;;;;;;;6342438;22;45503;-64
2023/02/02 20:25:21;;;;;;;;;8.33;8.00;;;;;;;;6364054;22;45465;-64
2023/02/02 20:27:46;;;;;;;;;10.00;8.00;;;;;;;;6352321;22;45563;-63
2023/02/02 20:30:30;;;;;;;;;7.67;6.33;;;;;;;;6358583;22;45479;-63
2023/02/02 20:32:56;;;;;;;;;9.00;7.00;;;;;;;;6359924;22;45444;-63
2023/02/02 20:35:22;;;;;;;;;8.67;8.67;;;;;;;;6356837;22;45483;-64
2023/02/02 20:37:47;;;;;;;;;7.33;7.33;;;;;;;;6351438;22;45854;-65
2023/02/02 20:40:18;;;;;;;;;6.33;6.33;;;;;;;;6355909;22;45943;-65
2023/02/02 20:42:45;;;;;;;;;8.67;7.33;;;;;;;;6350886;22;45741;-65
2023/02/02 20:45:10;;;;;;;;;7.00;7.00;;;;;;;;6358327;22;45738;-65
2023/02/02 20:47:35;;;;;;;;;6.00;6.00;;;;;;;;6353267;22;45964;-65
2023/02/02 20:50:02;;;;;;;;;7.33;6.67;;;;;;;;6356837;22;45894;-65
2023/02/02 20:52:29;;;;;;;;;6.00;6.00;;;;;;;;6355198;22;45491;-64
2023/02/02 20:54:55;;;;;;;;;5.67;5.33;;;;;;;;6349422;22;45566;-64